sensor_id;sensor_type;location;lat;lon;timestamp;P1;durP1;ratioP1;P2;durP2;ratioP2
69419;SDS011;71621;52.030;113.516;2023-11-19T00:01:52;15.48;;;6.28;;
69419;SDS011;71621;52.030;113.516;2023-11-19T00:04:56;13.57;;;6.05;;
69419;SDS011;71621;52.030;113.516;2023-11-19T00:08:00;13.60;;;4.67;;
69419;SDS011;71621;52.030;113.516;2023-11-19T00:11:04;10.50;;;5.22;;
69419;SDS011;71621;52.030;113.516;2023-11-19T00:14:08;22.50;;;6.60;;
69419;SDS011;71621;52.030;113.516;2023-11-19T00:17:12;15.73;;;6.03;;
69419;SDS011;71621;52.030;113.516;2023-11-19T00:20:17;16.27;;;5.80;;
69419;SDS011;71621;52.030;113.516;2023-11-19T00:23:22;16.80;;;6.82;;
69419;SDS011;71621;52.030;113.516;2023-11-19T00:26:26;20.58;;;6.60;;
69419;SDS011;71621;52.030;113.516;2023-11-19T00:29:31;21.17;;;8.30;;
69419;SDS011;71621;52.030;113.516;2023-11-19T00:32:34;36.83;;;15.60;;
69419;SDS011;71621;52.030;113.516;2023-11-19T00:35:39;19.47;;;8.77;;
69419;SDS011;71621;52.030;113.516;2023-11-19T00:38:43;23.48;;;9.05;;
69419;SDS011;71621;52.030;113.516;2023-11-19T00:41:46;47.38;;;19.58;;
69419;SDS011;71621;52.030;113.516;2023-11-19T00:44:50;60.38;;;23.98;;
69419;SDS011;71621;52.030;113.516;2023-11-19T00:47:54;71.77;;;28.03;;
69419;SDS011;71621;52.030;113.516;2023-11-19T00:50:58;61.22;;;22.35;;
69419;SDS011;71621;52.030;113.516;2023-11-19T00:54:02;61.97;;;21.23;;
69419;SDS011;71621;52.030;113.516;2023-11-19T00:57:06;53.80;;;21.13;;
69419;SDS011;71621;52.030;113.516;2023-11-19T01:00:10;53.07;;;20.33;;
69419;SDS011;71621;52.030;113.516;2023-11-19T01:03:22;52.58;;;19.35;;
69419;SDS011;71621;52.030;113.516;2023-11-19T01:06:27;50.35;;;19.90;;
69419;SDS011;71621;52.030;113.516;2023-11-19T01:09:34;60.50;;;22.20;;
69419;SDS011;71621;52.030;113.516;2023-11-19T01:12:38;74.10;;;26.15;;
69419;SDS011;71621;52.030;113.516;2023-11-19T01:15:41;86.32;;;32.38;;
69419;SDS011;71621;52.030;113.516;2023-11-19T01:18:49;62.80;;;25.50;;
69419;SDS011;71621;52.030;113.516;2023-11-19T01:21:56;66.70;;;25.85;;
69419;SDS011;71621;52.030;113.516;2023-11-19T01:25:00;82.18;;;31.52;;
69419;SDS011;71621;52.030;113.516;2023-11-19T01:28:04;80.32;;;28.70;;
69419;SDS011;71621;52.030;113.516;2023-11-19T01:31:07;64.05;;;25.27;;
69419;SDS011;71621;52.030;113.516;2023-11-19T01:34:11;93.18;;;35.50;;
69419;SDS011;71621;52.030;113.516;2023-11-19T01:37:15;79.63;;;29.77;;
69419;SDS011;71621;52.030;113.516;2023-11-19T01:40:22;74.35;;;30.25;;
69419;SDS011;71621;52.030;113.516;2023-11-19T01:43:32;72.10;;;27.38;;
69419;SDS011;71621;52.030;113.516;2023-11-19T01:46:36;68.88;;;27.95;;
69419;SDS011;71621;52.030;113.516;2023-11-19T01:49:41;67.38;;;26.52;;
69419;SDS011;71621;52.030;113.516;2023-11-19T01:52:45;61.40;;;24.08;;
69419;SDS011;71621;52.030;113.516;2023-11-19T01:55:49;64.65;;;25.75;;
69419;SDS011;71621;52.030;113.516;2023-11-19T01:58:54;75.28;;;27.23;;
69419;SDS011;71621;52.030;113.516;2023-11-19T02:01:58;78.63;;;30.35;;
69419;SDS011;71621;52.030;113.516;2023-11-19T02:05:03;81.37;;;29.67;;
69419;SDS011;71621;52.030;113.516;2023-11-19T02:08:07;87.25;;;31.80;;
69419;SDS011;71621;52.030;113.516;2023-11-19T02:11:11;82.20;;;31.83;;
69419;SDS011;71621;52.030;113.516;2023-11-19T02:14:15;84.40;;;31.65;;
69419;SDS011;71621;52.030;113.516;2023-11-19T02:17:28;50.00;;;17.90;;
69419;SDS011;71621;52.030;113.516;2023-11-19T02:20:37;48.28;;;20.05;;
69419;SDS011;71621;52.030;113.516;2023-11-19T02:23:41;57.25;;;17.52;;
69419;SDS011;71621;52.030;113.516;2023-11-19T02:26:47;40.10;;;13.68;;
69419;SDS011;71621;52.030;113.516;2023-11-19T02:30:00;29.47;;;10.97;;
69419;SDS011;71621;52.030;113.516;2023-11-19T02:33:05;21.17;;;8.55;;
69419;SDS011;71621;52.030;113.516;2023-11-19T02:36:10;25.30;;;11.20;;
69419;SDS011;71621;52.030;113.516;2023-11-19T02:39:13;68.70;;;28.42;;
69419;SDS011;71621;52.030;113.516;2023-11-19T02:42:23;92.63;;;35.47;;
69419;SDS011;71621;52.030;113.516;2023-11-19T02:45:26;106.77;;;39.30;;
69419;SDS011;71621;52.030;113.516;2023-11-19T02:48:34;92.10;;;37.15;;
69419;SDS011;71621;52.030;113.516;2023-11-19T02:51:38;68.07;;;27.88;;
69419;SDS011;71621;52.030;113.516;2023-11-19T02:54:42;63.25;;;24.45;;
69419;SDS011;71621;52.030;113.516;2023-11-19T02:57:46;44.67;;;17.23;;
69419;SDS011;71621;52.030;113.516;2023-11-19T03:00:53;39.87;;;16.03;;
69419;SDS011;71621;52.030;113.516;2023-11-19T03:04:00;40.63;;;17.85;;
69419;SDS011;71621;52.030;113.516;2023-11-19T03:07:06;38.83;;;15.05;;
69419;SDS011;71621;52.030;113.516;2023-11-19T03:10:10;18.95;;;8.20;;
69419;SDS011;71621;52.030;113.516;2023-11-19T03:13:17;25.00;;;11.32;;
69419;SDS011;71621;52.030;113.516;2023-11-19T03:16:21;15.77;;;6.68;;
69419;SDS011;71621;52.030;113.516;2023-11-19T03:19:25;18.90;;;7.15;;
69419;SDS011;71621;52.030;113.516;2023-11-19T03:22:29;16.40;;;7.35;;
69419;SDS011;71621;52.030;113.516;2023-11-19T03:25:33;20.40;;;7.07;;
69419;SDS011;71621;52.030;113.516;2023-11-19T03:28:36;19.53;;;7.33;;
69419;SDS011;71621;52.030;113.516;2023-11-19T03:31:43;12.90;;;6.10;;
69419;SDS011;71621;52.030;113.516;2023-11-19T03:34:49;13.55;;;6.20;;
69419;SDS011;71621;52.030;113.516;2023-11-19T03:37:53;13.13;;;6.30;;
69419;SDS011;71621;52.030;113.516;2023-11-19T03:40:58;15.13;;;6.75;;
69419;SDS011;71621;52.030;113.516;2023-11-19T03:44:02;14.20;;;5.93;;
69419;SDS011;71621;52.030;113.516;2023-11-19T03:47:05;15.20;;;6.28;;
69419;SDS011;71621;52.030;113.516;2023-11-19T03:50:10;17.08;;;7.00;;
69419;SDS011;71621;52.030;113.516;2023-11-19T03:53:13;16.55;;;6.63;;
69419;SDS011;71621;52.030;113.516;2023-11-19T03:56:18;19.02;;;7.53;;
69419;SDS011;71621;52.030;113.516;2023-11-19T03:59:21;10.77;;;4.47;;
69419;SDS011;71621;52.030;113.516;2023-11-19T04:02:25;16.17;;;5.22;;
69419;SDS011;71621;52.030;113.516;2023-11-19T04:05:31;13.88;;;5.18;;
69419;SDS011;71621;52.030;113.516;2023-11-19T04:08:35;13.25;;;6.30;;
69419;SDS011;71621;52.030;113.516;2023-11-19T04:11:38;13.52;;;5.55;;
69419;SDS011;71621;52.030;113.516;2023-11-19T04:14:42;12.97;;;5.47;;
69419;SDS011;71621;52.030;113.516;2023-11-19T04:17:46;19.48;;;7.13;;
69419;SDS011;71621;52.030;113.516;2023-11-19T04:20:50;21.95;;;8.05;;
69419;SDS011;71621;52.030;113.516;2023-11-19T04:23:54;27.10;;;8.82;;
69419;SDS011;71621;52.030;113.516;2023-11-19T04:26:58;17.67;;;8.07;;
69419;SDS011;71621;52.030;113.516;2023-11-19T04:30:01;17.53;;;7.23;;
69419;SDS011;71621;52.030;113.516;2023-11-19T04:33:06;20.02;;;7.75;;
69419;SDS011;71621;52.030;113.516;2023-11-19T04:36:10;18.38;;;7.57;;
69419;SDS011;71621;52.030;113.516;2023-11-19T04:39:14;17.48;;;7.28;;
69419;SDS011;71621;52.030;113.516;2023-11-19T04:42:18;16.25;;;5.70;;
69419;SDS011;71621;52.030;113.516;2023-11-19T04:45:22;18.23;;;6.77;;
69419;SDS011;71621;52.030;113.516;2023-11-19T04:48:26;24.77;;;7.15;;
69419;SDS011;71621;52.030;113.516;2023-11-19T04:51:42;15.80;;;6.45;;
69419;SDS011;71621;52.030;113.516;2023-11-19T04:54:51;20.20;;;5.95;;
69419;SDS011;71621;52.030;113.516;2023-11-19T04:57:55;20.13;;;6.55;;
69419;SDS011;71621;52.030;113.516;2023-11-19T05:00:59;17.13;;;6.37;;
69419;SDS011;71621;52.030;113.516;2023-11-19T05:04:02;16.40;;;5.90;;
69419;SDS011;71621;52.030;113.516;2023-11-19T05:07:06;19.90;;;5.57;;
69419;SDS011;71621;52.030;113.516;2023-11-19T05:10:10;17.38;;;5.80;;
69419;SDS011;71621;52.030;113.516;2023-11-19T05:13:14;17.88;;;5.78;;
69419;SDS011;71621;52.030;113.516;2023-11-19T05:16:18;19.53;;;5.17;;
69419;SDS011;71621;52.030;113.516;2023-11-19T05:19:22;23.95;;;5.88;;
69419;SDS011;71621;52.030;113.516;2023-11-19T05:22:25;18.15;;;5.43;;
69419;SDS011;71621;52.030;113.516;2023-11-19T05:25:30;14.43;;;4.53;;
69419;SDS011;71621;52.030;113.516;2023-11-19T05:28:33;17.00;;;5.07;;
69419;SDS011;71621;52.030;113.516;2023-11-19T05:31:37;24.13;;;5.40;;
69419;SDS011;71621;52.030;113.516;2023-11-19T05:34:45;21.85;;;5.15;;
69419;SDS011;71621;52.030;113.516;2023-11-19T05:37:51;22.55;;;5.40;;
69419;SDS011;71621;52.030;113.516;2023-11-19T05:40:55;25.20;;;5.45;;
69419;SDS011;71621;52.030;113.516;2023-11-19T05:43:58;30.95;;;5.70;;
69419;SDS011;71621;52.030;113.516;2023-11-19T05:47:02;28.07;;;6.07;;
69419;SDS011;71621;52.030;113.516;2023-11-19T05:50:05;19.85;;;4.70;;
69419;SDS011;71621;52.030;113.516;2023-11-19T05:53:09;14.90;;;5.00;;
69419;SDS011;71621;52.030;113.516;2023-11-19T05:56:13;17.60;;;6.22;;
69419;SDS011;71621;52.030;113.516;2023-11-19T05:59:18;14.55;;;5.07;;
69419;SDS011;71621;52.030;113.516;2023-11-19T06:02:21;14.57;;;4.73;;
69419;SDS011;71621;52.030;113.516;2023-11-19T06:05:25;11.27;;;4.93;;
69419;SDS011;71621;52.030;113.516;2023-11-19T06:08:28;17.73;;;5.47;;
69419;SDS011;71621;52.030;113.516;2023-11-19T06:11:33;10.82;;;4.88;;
69419;SDS011;71621;52.030;113.516;2023-11-19T06:14:38;9.88;;;4.82;;
69419;SDS011;71621;52.030;113.516;2023-11-19T06:17:42;12.67;;;5.60;;
69419;SDS011;71621;52.030;113.516;2023-11-19T06:20:46;15.38;;;5.20;;
69419;SDS011;71621;52.030;113.516;2023-11-19T06:23:50;8.63;;;3.72;;
69419;SDS011;71621;52.030;113.516;2023-11-19T06:26:56;11.35;;;3.55;;
69419;SDS011;71621;52.030;113.516;2023-11-19T06:30:00;8.88;;;3.22;;
69419;SDS011;71621;52.030;113.516;2023-11-19T06:33:04;11.17;;;4.57;;
69419;SDS011;71621;52.030;113.516;2023-11-19T06:36:10;10.90;;;3.95;;
69419;SDS011;71621;52.030;113.516;2023-11-19T06:39:13;9.27;;;4.10;;
69419;SDS011;71621;52.030;113.516;2023-11-19T06:42:17;8.40;;;2.85;;
69419;SDS011;71621;52.030;113.516;2023-11-19T06:45:23;9.02;;;4.57;;
69419;SDS011;71621;52.030;113.516;2023-11-19T06:48:27;11.40;;;4.07;;
69419;SDS011;71621;52.030;113.516;2023-11-19T06:51:30;9.30;;;4.10;;
69419;SDS011;71621;52.030;113.516;2023-11-19T06:54:34;11.63;;;3.75;;
69419;SDS011;71621;52.030;113.516;2023-11-19T06:57:38;12.10;;;3.88;;
69419;SDS011;71621;52.030;113.516;2023-11-19T07:00:41;12.60;;;4.50;;
69419;SDS011;71621;52.030;113.516;2023-11-19T07:03:45;12.83;;;4.13;;
69419;SDS011;71621;52.030;113.516;2023-11-19T07:06:50;14.80;;;4.80;;
69419;SDS011;71621;52.030;113.516;2023-11-19T07:09:56;12.65;;;5.38;;
69419;SDS011;71621;52.030;113.516;2023-11-19T07:12:59;15.95;;;5.18;;
69419;SDS011;71621;52.030;113.516;2023-11-19T07:16:03;13.77;;;5.25;;
69419;SDS011;71621;52.030;113.516;2023-11-19T07:19:07;12.63;;;5.33;;
69419;SDS011;71621;52.030;113.516;2023-11-19T07:22:11;14.43;;;5.28;;
69419;SDS011;71621;52.030;113.516;2023-11-19T07:25:14;13.93;;;6.05;;
69419;SDS011;71621;52.030;113.516;2023-11-19T07:28:18;12.70;;;6.00;;
69419;SDS011;71621;52.030;113.516;2023-11-19T07:31:21;16.25;;;6.13;;
69419;SDS011;71621;52.030;113.516;2023-11-19T07:34:26;11.83;;;5.10;;
69419;SDS011;71621;52.030;113.516;2023-11-19T07:37:29;10.35;;;4.65;;
69419;SDS011;71621;52.030;113.516;2023-11-19T07:40:33;10.00;;;4.88;;
69419;SDS011;71621;52.030;113.516;2023-11-19T07:43:36;15.48;;;5.50;;
69419;SDS011;71621;52.030;113.516;2023-11-19T07:46:40;15.68;;;5.70;;
69419;SDS011;71621;52.030;113.516;2023-11-19T07:49:44;14.13;;;6.43;;
69419;SDS011;71621;52.030;113.516;2023-11-19T07:52:48;18.38;;;6.93;;
69419;SDS011;71621;52.030;113.516;2023-11-19T07:55:51;17.67;;;7.22;;
69419;SDS011;71621;52.030;113.516;2023-11-19T07:58:55;20.48;;;7.30;;
69419;SDS011;71621;52.030;113.516;2023-11-19T08:01:59;20.23;;;7.22;;
69419;SDS011;71621;52.030;113.516;2023-11-19T08:05:02;19.13;;;8.20;;
69419;SDS011;71621;52.030;113.516;2023-11-19T08:08:06;17.30;;;6.57;;
69419;SDS011;71621;52.030;113.516;2023-11-19T08:11:10;12.32;;;5.47;;
69419;SDS011;71621;52.030;113.516;2023-11-19T08:14:13;10.75;;;4.13;;
69419;SDS011;71621;52.030;113.516;2023-11-19T08:17:17;11.55;;;4.30;;
69419;SDS011;71621;52.030;113.516;2023-11-19T08:20:21;17.70;;;5.90;;
69419;SDS011;71621;52.030;113.516;2023-11-19T08:23:25;10.90;;;4.75;;
69419;SDS011;71621;52.030;113.516;2023-11-19T08:26:28;13.68;;;4.13;;
69419;SDS011;71621;52.030;113.516;2023-11-19T08:29:32;10.23;;;4.85;;
69419;SDS011;71621;52.030;113.516;2023-11-19T08:32:35;15.90;;;5.07;;
69419;SDS011;71621;52.030;113.516;2023-11-19T08:35:39;13.13;;;5.30;;
69419;SDS011;71621;52.030;113.516;2023-11-19T08:38:42;11.02;;;4.75;;
69419;SDS011;71621;52.030;113.516;2023-11-19T08:41:46;10.88;;;4.80;;
69419;SDS011;71621;52.030;113.516;2023-11-19T08:44:51;13.30;;;5.18;;
69419;SDS011;71621;52.030;113.516;2023-11-19T08:47:57;10.55;;;4.53;;
69419;SDS011;71621;52.030;113.516;2023-11-19T08:51:00;18.47;;;5.80;;
69419;SDS011;71621;52.030;113.516;2023-11-19T08:54:04;16.85;;;6.15;;
69419;SDS011;71621;52.030;113.516;2023-11-19T08:57:08;15.88;;;5.50;;
69419;SDS011;71621;52.030;113.516;2023-11-19T09:00:11;18.40;;;6.40;;
69419;SDS011;71621;52.030;113.516;2023-11-19T09:03:17;16.88;;;7.60;;
69419;SDS011;71621;52.030;113.516;2023-11-19T09:06:21;18.37;;;7.13;;
69419;SDS011;71621;52.030;113.516;2023-11-19T09:09:24;17.52;;;7.07;;
69419;SDS011;71621;52.030;113.516;2023-11-19T09:12:28;17.23;;;6.95;;
69419;SDS011;71621;52.030;113.516;2023-11-19T09:15:31;19.35;;;6.32;;
69419;SDS011;71621;52.030;113.516;2023-11-19T09:18:35;15.25;;;6.28;;
69419;SDS011;71621;52.030;113.516;2023-11-19T09:21:39;19.73;;;6.80;;
69419;SDS011;71621;52.030;113.516;2023-11-19T09:24:42;23.73;;;7.57;;
69419;SDS011;71621;52.030;113.516;2023-11-19T09:27:47;43.08;;;14.88;;
69419;SDS011;71621;52.030;113.516;2023-11-19T09:30:52;18.63;;;7.95;;
69419;SDS011;71621;52.030;113.516;2023-11-19T09:33:55;20.52;;;8.13;;
69419;SDS011;71621;52.030;113.516;2023-11-19T09:36:59;19.77;;;7.50;;
69419;SDS011;71621;52.030;113.516;2023-11-19T09:40:03;16.65;;;6.93;;
69419;SDS011;71621;52.030;113.516;2023-11-19T09:43:07;13.48;;;6.78;;
69419;SDS011;71621;52.030;113.516;2023-11-19T09:46:11;15.25;;;6.70;;
69419;SDS011;71621;52.030;113.516;2023-11-19T09:49:18;15.52;;;7.35;;
69419;SDS011;71621;52.030;113.516;2023-11-19T09:52:30;16.97;;;7.63;;
69419;SDS011;71621;52.030;113.516;2023-11-19T09:55:34;16.42;;;7.45;;
69419;SDS011;71621;52.030;113.516;2023-11-19T09:58:37;23.27;;;7.47;;
69419;SDS011;71621;52.030;113.516;2023-11-19T10:01:41;17.55;;;7.28;;
69419;SDS011;71621;52.030;113.516;2023-11-19T10:04:45;22.80;;;9.05;;
69419;SDS011;71621;52.030;113.516;2023-11-19T10:07:51;14.27;;;6.37;;
69419;SDS011;71621;52.030;113.516;2023-11-19T10:10:56;16.08;;;6.10;;
69419;SDS011;71621;52.030;113.516;2023-11-19T10:13:59;15.68;;;5.75;;
69419;SDS011;71621;52.030;113.516;2023-11-19T10:17:04;14.07;;;4.90;;
69419;SDS011;71621;52.030;113.516;2023-11-19T10:20:09;17.63;;;5.40;;
69419;SDS011;71621;52.030;113.516;2023-11-19T10:23:13;39.07;;;15.30;;
69419;SDS011;71621;52.030;113.516;2023-11-19T10:26:17;44.67;;;18.02;;
69419;SDS011;71621;52.030;113.516;2023-11-19T10:29:23;48.65;;;21.10;;
69419;SDS011;71621;52.030;113.516;2023-11-19T10:32:26;73.85;;;35.10;;
69419;SDS011;71621;52.030;113.516;2023-11-19T10:35:30;106.80;;;47.65;;
69419;SDS011;71621;52.030;113.516;2023-11-19T10:38:34;72.87;;;30.00;;
69419;SDS011;71621;52.030;113.516;2023-11-19T10:41:38;59.67;;;26.17;;
69419;SDS011;71621;52.030;113.516;2023-11-19T10:44:41;28.40;;;11.15;;
69419;SDS011;71621;52.030;113.516;2023-11-19T10:47:45;20.50;;;7.50;;
69419;SDS011;71621;52.030;113.516;2023-11-19T10:50:53;9.90;;;4.70;;
69419;SDS011;71621;52.030;113.516;2023-11-19T10:54:03;14.67;;;5.50;;
69419;SDS011;71621;52.030;113.516;2023-11-19T10:57:12;21.10;;;9.45;;
69419;SDS011;71621;52.030;113.516;2023-11-19T11:00:23;21.83;;;8.00;;
69419;SDS011;71621;52.030;113.516;2023-11-19T11:03:29;24.77;;;10.10;;
69419;SDS011;71621;52.030;113.516;2023-11-19T11:06:43;22.98;;;10.02;;
69419;SDS011;71621;52.030;113.516;2023-11-19T11:09:47;35.70;;;12.47;;
69419;SDS011;71621;52.030;113.516;2023-11-19T11:12:54;14.98;;;5.05;;
69419;SDS011;71621;52.030;113.516;2023-11-19T11:16:02;12.85;;;4.80;;
69419;SDS011;71621;52.030;113.516;2023-11-19T11:19:10;14.02;;;5.28;;
69419;SDS011;71621;52.030;113.516;2023-11-19T11:22:15;10.73;;;4.80;;
69419;SDS011;71621;52.030;113.516;2023-11-19T11:25:46;13.13;;;4.60;;
69419;SDS011;71621;52.030;113.516;2023-11-19T11:29:16;13.15;;;4.78;;
69419;SDS011;71621;52.030;113.516;2023-11-19T11:32:59;13.35;;;4.80;;
69419;SDS011;71621;52.030;113.516;2023-11-19T11:36:17;16.38;;;6.03;;
69419;SDS011;71621;52.030;113.516;2023-11-19T11:39:24;15.10;;;5.75;;
69419;SDS011;71621;52.030;113.516;2023-11-19T11:45:35;19.55;;;5.93;;
69419;SDS011;71621;52.030;113.516;2023-11-19T11:48:45;11.85;;;4.43;;
69419;SDS011;71621;52.030;113.516;2023-11-19T11:51:57;10.73;;;3.75;;
69419;SDS011;71621;52.030;113.516;2023-11-19T11:55:05;10.02;;;4.40;;
69419;SDS011;71621;52.030;113.516;2023-11-19T11:58:11;11.77;;;3.93;;
69419;SDS011;71621;52.030;113.516;2023-11-19T12:01:15;8.93;;;3.08;;
69419;SDS011;71621;52.030;113.516;2023-11-19T12:04:25;10.27;;;4.07;;
69419;SDS011;71621;52.030;113.516;2023-11-19T12:07:31;9.63;;;3.08;;
69419;SDS011;71621;52.030;113.516;2023-11-19T12:10:36;8.02;;;3.17;;
69419;SDS011;71621;52.030;113.516;2023-11-19T12:13:54;9.77;;;3.07;;
69419;SDS011;71621;52.030;113.516;2023-11-19T12:20:36;9.48;;;2.72;;
69419;SDS011;71621;52.030;113.516;2023-11-19T12:23:45;11.27;;;3.88;;
69419;SDS011;71621;52.030;113.516;2023-11-19T12:26:52;15.43;;;3.58;;
69419;SDS011;71621;52.030;113.516;2023-11-19T12:29:57;11.77;;;3.93;;
69419;SDS011;71621;52.030;113.516;2023-11-19T12:33:07;11.45;;;4.25;;
69419;SDS011;71621;52.030;113.516;2023-11-19T12:36:11;12.65;;;4.00;;
69419;SDS011;71621;52.030;113.516;2023-11-19T12:39:15;9.27;;;3.78;;
69419;SDS011;71621;52.030;113.516;2023-11-19T12:42:19;10.73;;;3.72;;
69419;SDS011;71621;52.030;113.516;2023-11-19T12:45:23;10.60;;;3.70;;
69419;SDS011;71621;52.030;113.516;2023-11-19T12:48:27;9.23;;;2.88;;
69419;SDS011;71621;52.030;113.516;2023-11-19T12:51:30;10.43;;;3.13;;
69419;SDS011;71621;52.030;113.516;2023-11-19T12:54:36;11.27;;;3.40;;
69419;SDS011;71621;52.030;113.516;2023-11-19T12:57:40;8.68;;;3.10;;
69419;SDS011;71621;52.030;113.516;2023-11-19T13:00:45;9.70;;;3.40;;
69419;SDS011;71621;52.030;113.516;2023-11-19T13:03:48;10.77;;;3.80;;
69419;SDS011;71621;52.030;113.516;2023-11-19T13:06:54;12.77;;;4.50;;
69419;SDS011;71621;52.030;113.516;2023-11-19T13:10:02;19.10;;;5.90;;
69419;SDS011;71621;52.030;113.516;2023-11-19T13:13:06;17.13;;;6.95;;
69419;SDS011;71621;52.030;113.516;2023-11-19T13:16:14;20.73;;;7.47;;
69419;SDS011;71621;52.030;113.516;2023-11-19T13:19:21;20.33;;;8.48;;
69419;SDS011;71621;52.030;113.516;2023-11-19T13:22:26;23.02;;;9.43;;
69419;SDS011;71621;52.030;113.516;2023-11-19T13:25:30;29.63;;;10.27;;
69419;SDS011;71621;52.030;113.516;2023-11-19T13:28:35;31.95;;;12.88;;
69419;SDS011;71621;52.030;113.516;2023-11-19T13:31:38;29.53;;;12.13;;
69419;SDS011;71621;52.030;113.516;2023-11-19T13:34:42;30.80;;;12.65;;
69419;SDS011;71621;52.030;113.516;2023-11-19T13:37:45;30.85;;;11.55;;
69419;SDS011;71621;52.030;113.516;2023-11-19T13:40:50;21.10;;;8.50;;
69419;SDS011;71621;52.030;113.516;2023-11-19T13:43:54;28.60;;;13.38;;
69419;SDS011;71621;52.030;113.516;2023-11-19T13:46:58;46.73;;;21.20;;
69419;SDS011;71621;52.030;113.516;2023-11-19T13:50:01;21.00;;;9.63;;
69419;SDS011;71621;52.030;113.516;2023-11-19T13:53:08;19.30;;;8.02;;
69419;SDS011;71621;52.030;113.516;2023-11-19T13:56:12;28.60;;;9.82;;
69419;SDS011;71621;52.030;113.516;2023-11-19T13:59:16;40.13;;;12.45;;
69419;SDS011;71621;52.030;113.516;2023-11-19T14:02:19;38.70;;;11.83;;
69419;SDS011;71621;52.030;113.516;2023-11-19T14:05:23;34.70;;;12.38;;
69419;SDS011;71621;52.030;113.516;2023-11-19T14:08:29;48.72;;;16.38;;
69419;SDS011;71621;52.030;113.516;2023-11-19T14:11:33;74.18;;;21.83;;
69419;SDS011;71621;52.030;113.516;2023-11-19T14:14:37;74.00;;;22.85;;
69419;SDS011;71621;52.030;113.516;2023-11-19T14:17:42;78.07;;;24.30;;
69419;SDS011;71621;52.030;113.516;2023-11-19T14:20:46;116.93;;;35.38;;
69419;SDS011;71621;52.030;113.516;2023-11-19T14:23:49;96.50;;;28.52;;
69419;SDS011;71621;52.030;113.516;2023-11-19T14:26:52;56.03;;;19.35;;
69419;SDS011;71621;52.030;113.516;2023-11-19T14:29:56;32.67;;;10.55;;
69419;SDS011;71621;52.030;113.516;2023-11-19T14:33:00;41.30;;;14.00;;
69419;SDS011;71621;52.030;113.516;2023-11-19T14:36:03;138.65;;;36.55;;
69419;SDS011;71621;52.030;113.516;2023-11-19T14:39:09;133.20;;;37.30;;
69419;SDS011;71621;52.030;113.516;2023-11-19T14:42:14;135.13;;;39.70;;
69419;SDS011;71621;52.030;113.516;2023-11-19T14:45:18;137.18;;;40.45;;
69419;SDS011;71621;52.030;113.516;2023-11-19T14:48:22;134.80;;;40.57;;
69419;SDS011;71621;52.030;113.516;2023-11-19T14:51:26;116.72;;;38.17;;
69419;SDS011;71621;52.030;113.516;2023-11-19T14:54:29;111.30;;;34.55;;
69419;SDS011;71621;52.030;113.516;2023-11-19T14:57:33;99.88;;;29.52;;
69419;SDS011;71621;52.030;113.516;2023-11-19T15:00:38;62.03;;;19.50;;
69419;SDS011;71621;52.030;113.516;2023-11-19T15:03:42;69.30;;;20.27;;
69419;SDS011;71621;52.030;113.516;2023-11-19T15:06:49;68.97;;;21.60;;
69419;SDS011;71621;52.030;113.516;2023-11-19T15:09:54;74.38;;;23.58;;
69419;SDS011;71621;52.030;113.516;2023-11-19T15:12:57;74.30;;;24.38;;
69419;SDS011;71621;52.030;113.516;2023-11-19T15:16:01;70.30;;;24.70;;
69419;SDS011;71621;52.030;113.516;2023-11-19T15:19:05;78.47;;;24.47;;
69419;SDS011;71621;52.030;113.516;2023-11-19T15:22:08;76.25;;;24.77;;
69419;SDS011;71621;52.030;113.516;2023-11-19T15:25:14;75.97;;;26.30;;
69419;SDS011;71621;52.030;113.516;2023-11-19T15:28:17;67.43;;;21.52;;
69419;SDS011;71621;52.030;113.516;2023-11-19T15:31:22;56.42;;;18.45;;
69419;SDS011;71621;52.030;113.516;2023-11-19T15:34:25;47.07;;;15.73;;
69419;SDS011;71621;52.030;113.516;2023-11-19T15:37:29;39.90;;;14.02;;
69419;SDS011;71621;52.030;113.516;2023-11-19T15:40:33;39.63;;;13.02;;
69419;SDS011;71621;52.030;113.516;2023-11-19T15:43:36;42.05;;;13.82;;
69419;SDS011;71621;52.030;113.516;2023-11-19T15:46:40;41.83;;;13.35;;
69419;SDS011;71621;52.030;113.516;2023-11-19T15:49:44;46.23;;;15.83;;
69419;SDS011;71621;52.030;113.516;2023-11-19T15:52:48;44.95;;;17.13;;
69419;SDS011;71621;52.030;113.516;2023-11-19T15:55:52;84.70;;;31.40;;
69419;SDS011;71621;52.030;113.516;2023-11-19T15:58:55;84.22;;;29.85;;
69419;SDS011;71621;52.030;113.516;2023-11-19T16:01:59;82.05;;;29.52;;
69419;SDS011;71621;52.030;113.516;2023-11-19T16:05:02;83.27;;;28.10;;
69419;SDS011;71621;52.030;113.516;2023-11-19T16:08:08;90.00;;;31.40;;
69419;SDS011;71621;52.030;113.516;2023-11-19T16:11:13;97.22;;;35.60;;
69419;SDS011;71621;52.030;113.516;2023-11-19T16:14:17;114.63;;;38.03;;
69419;SDS011;71621;52.030;113.516;2023-11-19T16:17:20;98.40;;;37.08;;
69419;SDS011;71621;52.030;113.516;2023-11-19T16:20:24;122.80;;;42.83;;
69419;SDS011;71621;52.030;113.516;2023-11-19T16:23:28;128.15;;;45.42;;
69419;SDS011;71621;52.030;113.516;2023-11-19T16:26:32;136.88;;;48.65;;
69419;SDS011;71621;52.030;113.516;2023-11-19T16:29:35;143.05;;;49.53;;
69419;SDS011;71621;52.030;113.516;2023-11-19T16:32:51;135.52;;;47.85;;
69419;SDS011;71621;52.030;113.516;2023-11-19T16:35:56;136.23;;;48.43;;
69419;SDS011;71621;52.030;113.516;2023-11-19T16:39:00;140.70;;;47.75;;
69419;SDS011;71621;52.030;113.516;2023-11-19T16:42:06;132.88;;;45.25;;
69419;SDS011;71621;52.030;113.516;2023-11-19T16:45:10;119.25;;;42.85;;
69419;SDS011;71621;52.030;113.516;2023-11-19T16:48:14;117.68;;;41.25;;
69419;SDS011;71621;52.030;113.516;2023-11-19T16:51:18;116.32;;;41.10;;
69419;SDS011;71621;52.030;113.516;2023-11-19T16:54:21;125.15;;;41.65;;
69419;SDS011;71621;52.030;113.516;2023-11-19T16:57:25;135.55;;;45.28;;
69419;SDS011;71621;52.030;113.516;2023-11-19T17:00:30;132.40;;;44.75;;
69419;SDS011;71621;52.030;113.516;2023-11-19T17:03:33;112.75;;;40.22;;
69419;SDS011;71621;52.030;113.516;2023-11-19T17:06:40;115.72;;;39.50;;
69419;SDS011;71621;52.030;113.516;2023-11-19T17:09:43;127.18;;;42.38;;
69419;SDS011;71621;52.030;113.516;2023-11-19T17:12:47;117.60;;;41.20;;
69419;SDS011;71621;52.030;113.516;2023-11-19T17:15:51;111.90;;;37.90;;
69419;SDS011;71621;52.030;113.516;2023-11-19T17:18:54;110.32;;;39.13;;
69419;SDS011;71621;52.030;113.516;2023-11-19T17:21:58;130.80;;;42.17;;
69419;SDS011;71621;52.030;113.516;2023-11-19T17:25:01;129.35;;;42.65;;
69419;SDS011;71621;52.030;113.516;2023-11-19T17:28:07;135.67;;;42.93;;
69419;SDS011;71621;52.030;113.516;2023-11-19T17:31:11;185.60;;;53.97;;
69419;SDS011;71621;52.030;113.516;2023-11-19T17:34:16;368.45;;;96.57;;
69419;SDS011;71621;52.030;113.516;2023-11-19T17:37:20;343.92;;;93.10;;
69419;SDS011;71621;52.030;113.516;2023-11-19T17:40:24;262.38;;;76.28;;
69419;SDS011;71621;52.030;113.516;2023-11-19T17:43:31;285.03;;;77.97;;
69419;SDS011;71621;52.030;113.516;2023-11-19T17:46:35;257.20;;;74.85;;